Time;durP1;ratioP1;P1;durP2;ratioP2;P2;SDS_P1;SDS_P2;PMS_P1;PMS_P2;Temp;Humidity;BMP_temperature;BMP_pressure;BME280_temperature;BME280_humidity;BME280_pressure;Samples;Min_cycle;Max_cycle;Signal;HPM_P1;HPM_P2
2022/11/03 00:01:38;;;;;;;18.30;5.10;;;11.10;99.90;;;;;;4938417;29;20039;-69
2022/11/03 00:04:05;;;;;;;17.83;5.90;;;11.10;99.90;;;;;;4930802;29;20692;-69
2022/11/03 00:06:31;;;;;;;16.58;6.57;;;11.20;99.90;;;;;;4930375;29;20058;-69
2022/11/03 00:09:00;;;;;;;17.27;5.35;;;11.10;99.90;;;;;;4932306;29;20167;-69
2022/11/03 00:11:26;;;;;;;19.52;5.38;;;11.10;99.90;;;;;;4928849;29;20047;-70
2022/11/03 00:13:52;;;;;;;20.85;5.47;;;11.10;99.90;;;;;;4928555;29;20095;-70
2022/11/03 00:16:17;;;;;;;21.85;5.53;;;11.20;99.90;;;;;;4930372;29;20511;-70
2022/11/03 00:18:43;;;;;;;15.10;5.25;;;11.20;99.90;;;;;;4926200;29;20562;-70
2022/11/03 00:21:10;;;;;;;25.13;4.90;;;11.20;99.90;;;;;;4921058;29;20056;-69
2022/11/03 00:23:39;;;;;;;15.63;4.97;;;11.20;99.90;;;;;;4928268;29;20048;-70
2022/11/03 00:26:05;;;;;;;25.98;6.90;;;11.20;99.90;;;;;;4929511;29;20119;-70
2022/11/03 00:28:32;;;;;;;18.55;5.22;;;11.40;99.90;;;;;;4930273;29;20052;-69
2022/11/03 00:31:00;;;;;;;30.02;6.50;;;11.20;99.90;;;;;;4929256;29;20040;-69
2022/11/03 00:33:26;;;;;;;19.08;5.72;;;11.20;99.90;;;;;;4926591;29;20084;-69
2022/11/03 00:36:00;;;;;;;13.13;4.68;;;11.40;99.90;;;;;;4945360;28;20574;-70
2022/11/03 00:38:26;;;;;;;30.02;5.68;;;11.30;99.90;;;;;;4927434;29;20059;-69
2022/11/03 00:40:56;;;;;;;14.90;5.50;;;11.20;99.90;;;;;;4928993;29;20050;-70
2022/11/03 00:43:23;;;;;;;40.63;7.20;;;11.10;99.90;;;;;;4930775;29;20070;-69
2022/11/03 00:45:48;;;;;;;18.75;5.95;;;11.20;99.90;;;;;;4930419;29;20047;-69
2022/11/03 00:48:30;;;;;;;23.08;5.80;;;11.10;99.90;;;;;;4930672;29;20059;-70
2022/11/03 00:51:04;;;;;;;19.17;5.90;;;11.10;99.90;;;;;;4933166;29;20058;-69
2022/11/03 00:53:32;;;;;;;26.65;5.88;;;11.10;99.90;;;;;;4933736;29;20052;-69
2022/11/03 00:55:57;;;;;;;29.52;6.03;;;11.10;99.90;;;;;;4932053;29;20048;-69
2022/11/03 00:58:24;;;;;;;23.85;4.72;;;11.10;99.90;;;;;;4934649;29;20044;-69
2022/11/03 01:00:50;;;;;;;26.67;6.70;;;11.00;99.90;;;;;;4938726;29;20445;-69
2022/11/03 01:03:16;;;;;;;27.40;5.55;;;11.00;99.90;;;;;;4931849;29;20118;-69
2022/11/03 01:08:35;;;;;;;25.35;7.45;;;11.00;99.90;;;;;;4932681;29;20063;-69
2022/11/03 01:13:56;;;;;;;19.63;5.60;;;10.90;99.90;;;;;;4922513;29;20052;-69
2022/11/03 01:16:22;;;;;;;21.25;5.35;;;11.00;99.90;;;;;;4933675;29;20532;-69
2022/11/03 01:18:48;;;;;;;15.02;6.07;;;10.90;99.90;;;;;;4932794;29;20147;-69
2022/11/03 01:21:14;;;;;;;19.50;6.15;;;11.00;99.90;;;;;;4933094;29;20066;-70
2022/11/03 01:23:40;;;;;;;17.88;5.22;;;11.00;99.90;;;;;;4932296;29;20469;-69
2022/11/03 01:26:07;;;;;;;21.13;7.10;;;10.90;99.90;;;;;;4931711;29;20051;-69
2022/11/03 01:28:34;;;;;;;25.00;5.75;;;11.00;99.90;;;;;;4932505;29;20094;-69
2022/11/03 01:31:10;;;;;;;24.73;6.57;;;10.90;99.90;;;;;;4931668;29;20134;-70
2022/11/03 01:33:36;;;;;;;24.65;6.85;;;10.90;99.90;;;;;;4939675;29;20051;-69
2022/11/03 01:36:02;;;;;;;26.73;7.63;;;10.90;99.90;;;;;;4932133;29;20043;-69
2022/11/03 01:38:31;;;;;;;19.75;5.53;;;10.90;99.90;;;;;;4929715;29;20449;-69
2022/11/03 01:40:57;;;;;;;18.45;5.72;;;10.90;99.90;;;;;;4930783;29;20156;-70
2022/11/03 01:43:26;;;;;;;19.33;6.00;;;10.90;99.90;;;;;;4932633;29;20096;-69
2022/11/03 01:46:11;;;;;;;18.40;5.75;;;10.90;99.90;;;;;;4933094;29;20118;-70
2022/11/03 01:49:01;;;;;;;29.20;5.35;;;10.90;99.90;;;;;;4932334;29;20505;-70
2022/11/03 01:51:28;;;;;;;23.17;6.45;;;10.80;99.90;;;;;;4931072;29;20420;-69
2022/11/03 01:53:58;;;;;;;21.23;5.93;;;10.80;99.90;;;;;;4932928;29;20080;-69
2022/11/03 01:56:25;;;;;;;24.65;6.28;;;10.80;99.90;;;;;;4931391;29;20055;-69
2022/11/03 01:58:53;;;;;;;23.85;7.45;;;10.90;99.90;;;;;;4930694;29;20051;-69
2022/11/03 02:01:19;;;;;;;;;;;10.80;99.90;;;;;;4932100;29;20382;-69
2022/11/03 02:03:52;;;;;;;20.52;6.38;;;10.80;99.90;;;;;;4931820;29;19934;-69
2022/11/03 02:06:20;;;;;;;22.13;5.80;;;10.80;99.90;;;;;;4930177;29;20126;-69
2022/11/03 02:08:48;;;;;;;21.00;6.25;;;10.80;99.90;;;;;;4913293;29;20056;-69
2022/11/03 02:13:58;;;;;;;21.60;6.20;;;10.80;99.90;;;;;;4945037;28;20332;-69
2022/11/03 02:16:25;;;;;;;14.80;6.78;;;10.80;99.90;;;;;;4930864;29;20479;-69
2022/11/03 02:18:52;;;;;;;20.23;5.72;;;10.80;99.90;;;;;;4932368;29;20051;-69
2022/11/03 02:21:44;;;;;;;21.63;6.23;;;10.80;99.90;;;;;;4931282;29;20050;-69
2022/11/03 02:24:45;;;;;;;17.45;5.72;;;10.90;99.90;;;;;;4934563;29;20066;-69
2022/11/03 02:27:11;;;;;;;20.05;6.20;;;10.80;99.90;;;;;;4923000;29;20408;-69
2022/11/03 02:29:37;;;;;;;17.42;5.72;;;10.80;99.90;;;;;;4927425;29;20051;-69
2022/11/03 02:32:10;;;;;;;14.32;6.28;;;10.80;99.90;;;;;;4930352;29;20179;-69
2022/11/03 02:34:46;;;;;;;35.47;6.38;;;10.90;99.90;;;;;;4930490;29;20417;-69
2022/11/03 02:37:35;;;;;;;19.30;6.50;;;10.90;99.90;;;;;;4930536;29;20070;-69
2022/11/03 02:40:09;;;;;;;17.42;6.55;;;10.80;99.90;;;;;;4929748;29;20158;-69
2022/11/03 02:42:37;;;;;;;20.40;5.47;;;10.80;99.90;;;;;;4930171;29;20051;-68
2022/11/03 02:45:07;;;;;;;26.33;5.82;;;10.70;99.90;;;;;;4929792;29;20131;-69
2022/11/03 02:47:36;;;;;;;31.00;8.20;;;10.80;99.90;;;;;;4930584;29;20082;-69
2022/11/03 02:50:07;;;;;;;16.50;6.15;;;10.90;99.90;;;;;;4929714;29;21697;-69
2022/11/03 02:52:45;;;;;;;26.58;6.22;;;10.90;99.90;;;;;;4945318;28;20054;-69
2022/11/03 02:55:24;;;;;;;31.67;6.85;;;10.80;99.90;;;;;;4931964;29;20039;-69
2022/11/03 02:57:59;;;;;;;17.45;5.07;;;10.80;99.90;;;;;;4930043;29;20047;-69
2022/11/03 03:00:24;;;;;;;22.10;6.28;;;10.90;99.90;;;;;;4929513;29;20099;-69
2022/11/03 03:03:02;;;;;;;18.38;7.00;;;10.80;99.90;;;;;;4946418;28;20040;-69
2022/11/03 03:05:32;;;;;;;15.93;6.15;;;10.90;99.90;;;;;;4931315;29;20065;-69
2022/11/03 03:08:04;;;;;;;20.27;6.22;;;10.80;99.90;;;;;;4931007;29;20040;-69
2022/11/03 03:10:35;;;;;;;26.65;7.03;;;10.80;99.90;;;;;;4929778;29;20146;-69
2022/11/03 03:13:02;;;;;;;21.17;5.35;;;10.80;99.90;;;;;;4929657;29;20048;-69
2022/11/03 03:15:45;;;;;;;18.00;5.70;;;10.80;99.90;;;;;;4931688;29;20839;-69
2022/11/03 03:18:31;;;;;;;23.85;7.47;;;10.80;99.90;;;;;;4929115;29;20413;-69
2022/11/03 03:21:11;;;;;;;29.88;7.30;;;10.80;99.90;;;;;;4928265;29;20106;-69
2022/11/03 03:23:48;;;;;;;16.95;6.72;;;10.80;99.90;;;;;;4931602;29;20130;-69
2022/11/03 03:26:22;;;;;;;19.40;5.72;;;10.80;99.90;;;;;;4930241;29;20079;-69
2022/11/03 03:29:11;;;;;;;19.70;6.00;;;10.80;99.90;;;;;;4929321;29;20493;-69
2022/11/03 03:31:41;;;;;;;25.83;7.65;;;10.80;99.90;;;;;;4930202;29;20059;-69
2022/11/03 03:34:09;;;;;;;22.13;6.47;;;11.00;99.90;;;;;;4929533;29;20057;-69
2022/11/03 03:36:39;;;;;;;30.93;6.87;;;10.80;99.90;;;;;;4943986;29;20055;-69
2022/11/03 03:39:09;;;;;;;34.63;6.90;;;10.90;99.90;;;;;;4930099;29;20303;-69
2022/11/03 03:41:36;;;;;;;18.50;6.13;;;10.90;99.90;;;;;;4929796;29;20059;-69
2022/11/03 03:44:05;;;;;;;36.90;6.90;;;10.80;99.90;;;;;;4928561;29;20043;-69
2022/11/03 03:46:42;;;;;;;29.60;7.00;;;10.90;99.90;;;;;;4931020;29;20083;-69
2022/11/03 03:49:08;;;;;;;18.02;6.68;;;10.90;99.90;;;;;;4920444;29;20047;-69
2022/11/03 03:51:34;;;;;;;27.50;5.47;;;10.90;99.90;;;;;;4946466;28;20055;-69
2022/11/03 03:53:59;;;;;;;28.70;6.55;;;10.90;99.90;;;;;;4929740;29;20405;-69
2022/11/03 03:56:29;;;;;;;27.83;6.70;;;10.90;99.90;;;;;;4929702;29;20051;-69
2022/11/03 03:58:54;;;;;;;20.95;6.93;;;10.80;99.90;;;;;;4929150;29;20051;-69
2022/11/03 04:01:20;;;;;;;21.27;6.57;;;10.80;99.90;;;;;;4933772;29;20044;-69
2022/11/03 04:03:45;;;;;;;31.00;6.95;;;10.90;99.90;;;;;;4930154;29;20482;-69
2022/11/03 04:06:11;;;;;;;31.88;6.70;;;10.80;99.90;;;;;;4930592;29;20052;-69
2022/11/03 04:08:37;;;;;;;20.65;6.07;;;10.70;99.90;;;;;;4929589;29;20480;-69
2022/11/03 04:22:18;;;;;;;29.17;6.43;;;10.70;99.90;;;;;;4932601;29;20050;-69
2022/11/03 04:24:45;;;;;;;17.85;5.70;;;10.70;99.90;;;;;;4937645;29;20087;-69
2022/11/03 04:27:17;;;;;;;18.38;5.82;;;10.70;99.90;;;;;;4932358;29;20094;-69
2022/11/03 04:29:43;;;;;;;19.48;6.15;;;10.70;99.90;;;;;;4943767;29;20051;-69
2022/11/03 04:32:16;;;;;;;23.30;6.63;;;10.80;99.90;;;;;;4934015;29;20063;-69
2022/11/03 04:34:45;;;;;;;29.05;6.03;;;10.90;99.90;;;;;;4933210;29;20051;-69
2022/11/03 04:37:12;;;;;;;21.60;6.50;;;10.70;99.90;;;;;;4932753;29;20060;-69
2022/11/03 04:39:37;;;;;;;18.52;6.28;;;10.80;99.90;;;;;;4936691;29;20063;-69
2022/11/03 04:42:18;;;;;;;22.73;6.20;;;10.70;99.90;;;;;;4934704;29;20048;-69
2022/11/03 04:44:45;;;;;;;28.55;6.75;;;10.80;99.90;;;;;;4933590;29;20151;-69
2022/11/03 04:47:12;;;;;;;28.55;7.80;;;10.70;99.90;;;;;;4932657;29;20090;-69
2022/11/03 04:49:38;;;;;;;15.05;5.80;;;10.80;99.90;;;;;;4932655;29;20051;-70
2022/11/03 04:52:12;;;;;;;20.55;6.68;;;10.70;99.90;;;;;;4932793;29;20044;-69
2022/11/03 04:54:38;;;;;;;17.73;5.78;;;10.70;99.90;;;;;;4933610;29;20056;-69
2022/11/03 04:57:12;;;;;;;19.60;6.85;;;10.70;99.90;;;;;;4931352;29;20076;-69
2022/11/03 04:59:38;;;;;;;17.17;6.85;;;10.70;99.90;;;;;;4934116;29;20051;-69
2022/11/03 05:02:10;;;;;;;20.70;6.07;;;10.70;99.90;;;;;;4932309;29;20056;-69
2022/11/03 05:04:36;;;;;;;13.52;5.88;;;10.70;99.90;;;;;;4932806;29;20058;-69
2022/11/03 05:07:01;;;;;;;18.30;5.95;;;10.90;99.90;;;;;;4932793;29;20498;-69
2022/11/03 05:09:29;;;;;;;23.27;6.72;;;10.70;99.90;;;;;;4933345;29;20083;-69
2022/11/03 05:11:55;;;;;;;20.23;5.68;;;10.70;99.90;;;;;;4933559;29;20047;-69
2022/11/03 05:14:26;;;;;;;22.65;6.15;;;10.70;99.90;;;;;;4940690;29;20059;-69
2022/11/03 05:16:54;;;;;;;34.55;7.40;;;10.90;99.90;;;;;;4933147;29;20138;-69
2022/11/03 05:19:29;;;;;;;14.85;4.85;;;10.70;99.90;;;;;;4931918;29;20111;-69
2022/11/03 05:21:57;;;;;;;24.58;7.00;;;10.80;99.90;;;;;;4920975;29;20102;-69
2022/11/03 05:24:26;;;;;;;23.80;6.78;;;10.70;99.90;;;;;;4931688;29;20039;-69
2022/11/03 05:26:54;;;;;;;15.82;5.93;;;10.70;99.90;;;;;;4931754;29;20051;-69
2022/11/03 05:29:29;;;;;;;17.95;5.78;;;10.80;99.90;;;;;;4932160;29;20044;-69
2022/11/03 05:31:55;;;;;;;18.40;5.65;;;10.80;99.90;;;;;;4940193;29;20052;-69
2022/11/03 05:34:39;;;;;;;18.50;6.43;;;10.70;99.90;;;;;;4930852;29;20083;-69
2022/11/03 05:37:05;;;;;;;18.73;6.65;;;10.80;99.90;;;;;;4927735;29;20080;-69
2022/11/03 05:39:36;;;;;;;21.55;6.40;;;10.80;99.90;;;;;;4930533;29;20142;-69
2022/11/03 05:42:18;;;;;;;18.98;5.38;;;10.80;99.90;;;;;;4933058;29;20051;-69
2022/11/03 05:44:44;;;;;;;14.32;5.85;;;10.90;99.90;;;;;;4932576;29;20117;-69
2022/11/03 05:47:37;;;;;;;18.60;6.65;;;10.80;99.90;;;;;;4932467;29;20528;-69
2022/11/03 05:50:26;;;;;;;26.45;7.07;;;10.80;99.90;;;;;;4920808;29;20066;-69
2022/11/03 05:53:00;;;;;;;27.60;7.82;;;10.90;99.90;;;;;;4932154;29;20111;-69
2022/11/03 05:55:32;;;;;;;21.27;5.55;;;10.80;99.90;;;;;;4931681;29;20063;-69
2022/11/03 05:58:03;;;;;;;20.33;6.50;;;10.80;99.90;;;;;;4931373;29;20043;-69
2022/11/03 06:00:32;;;;;;;22.75;6.05;;;10.80;99.90;;;;;;4931836;29;20130;-69
2022/11/03 06:02:59;;;;;;;17.05;6.03;;;10.90;99.90;;;;;;4943080;28;20560;-70
2022/11/03 06:05:25;;;;;;;23.17;5.97;;;10.80;99.90;;;;;;4939934;29;20047;-69
2022/11/03 06:07:54;;;;;;;19.40;7.07;;;11.10;99.90;;;;;;4931204;29;20532;-69
2022/11/03 06:10:27;;;;;;;23.52;6.93;;;10.90;99.90;;;;;;4932031;29;20051;-69
2022/11/03 06:12:57;;;;;;;20.30;5.70;;;10.90;99.90;;;;;;4930851;29;20102;-69
2022/11/03 06:15:33;;;;;;;19.58;5.50;;;10.80;99.90;;;;;;4932217;29;20817;-69
2022/11/03 06:17:59;;;;;;;14.90;6.07;;;10.90;99.90;;;;;;4931080;29;20052;-69
2022/11/03 06:20:26;;;;;;;18.08;5.05;;;10.80;99.90;;;;;;4931729;29;20111;-69
2022/11/03 06:22:54;;;;;;;15.10;5.57;;;10.90;99.90;;;;;;4943110;29;20892;-69
2022/11/03 06:25:25;;;;;;;16.20;5.97;;;10.80;99.90;;;;;;4931855;29;20059;-69
2022/11/03 06:27:52;;;;;;;16.85;6.63;;;10.90;99.90;;;;;;4931838;29;20059;-69
2022/11/03 06:30:42;;;;;;;15.75;6.18;;;10.90;99.90;;;;;;4929487;29;20074;-69
2022/11/03 06:33:33;;;;;;;18.65;6.97;;;10.80;99.90;;;;;;4930456;29;20095;-69
2022/11/03 06:36:21;;;;;;;27.52;6.22;;;10.80;99.90;;;;;;4921084;29;20401;-69
2022/11/03 06:38:51;;;;;;;24.33;6.38;;;10.80;99.90;;;;;;4932048;29;20412;-69
2022/11/03 06:41:24;;;;;;;18.65;6.15;;;10.80;99.90;;;;;;4930116;29;20058;-69
2022/11/03 06:43:50;;;;;;;16.10;6.45;;;10.80;99.90;;;;;;4931548;29;20485;-69
2022/11/03 06:46:24;;;;;;;11.85;5.75;;;10.90;99.90;;;;;;4927315;29;20843;-69
2022/11/03 06:48:52;;;;;;;29.70;6.07;;;10.90;99.90;;;;;;4929331;29;20055;-69
2022/11/03 06:51:20;;;;;;;32.95;7.55;;;10.90;99.90;;;;;;4931015;29;20063;-69
2022/11/03 06:53:47;;;;;;;18.25;6.55;;;11.00;99.90;;;;;;4928367;29;20107;-69
2022/11/03 06:56:20;;;;;;;27.20;6.75;;;10.90;99.90;;;;;;4935756;29;20062;-69
2022/11/03 06:58:48;;;;;;;18.17;6.35;;;11.00;99.90;;;;;;4930581;29;20494;-70
2022/11/03 07:01:34;;;;;;;18.52;6.15;;;11.10;99.90;;;;;;4937474;29;20408;-70
2022/11/03 07:04:15;;;;;;;20.67;6.20;;;11.10;99.90;;;;;;4928358;29;20067;-69
2022/11/03 07:06:42;;;;;;;16.33;6.43;;;11.10;99.90;;;;;;4918483;29;20056;-69
2022/11/03 07:09:13;;;;;;;13.02;5.70;;;11.10;99.90;;;;;;4928030;29;20060;-69
2022/11/03 07:11:45;;;;;;;20.85;5.97;;;11.20;99.90;;;;;;4930428;29;20083;-69
2022/11/03 07:14:13;;;;;;;21.10;6.28;;;11.30;99.90;;;;;;4931449;29;20052;-69
2022/11/03 07:16:46;;;;;;;26.23;7.05;;;11.20;99.90;;;;;;4931217;29;20054;-69
2022/11/03 07:19:23;;;;;;;18.40;6.85;;;11.20;99.90;;;;;;4930003;29;20087;-69
2022/11/03 07:22:01;;;;;;;27.00;7.68;;;11.30;99.90;;;;;;4931034;29;20043;-69
2022/11/03 07:24:47;;;;;;;16.27;6.43;;;11.30;99.90;;;;;;4922295;29;20155;-69
2022/11/03 07:27:29;;;;;;;17.55;5.88;;;11.30;99.90;;;;;;4929085;29;20103;-69
2022/11/03 07:30:10;;;;;;;17.80;6.57;;;11.30;99.90;;;;;;4929372;29;20059;-70
2022/11/03 07:32:35;;;;;;;21.15;6.38;;;11.30;99.90;;;;;;4929381;29;20434;-70
2022/11/03 07:35:16;;;;;;;23.98;7.38;;;11.40;99.90;;;;;;4930661;29;20056;-69
2022/11/03 07:37:47;;;;;;;14.13;7.32;;;11.40;99.90;;;;;;4931506;29;20055;-69
2022/11/03 07:40:17;;;;;;;26.17;7.47;;;11.60;99.90;;;;;;4930455;29;20060;-69
2022/11/03 07:42:43;;;;;;;18.45;5.72;;;11.50;99.90;;;;;;4928677;29;20457;-69
2022/11/03 07:45:39;;;;;;;20.50;6.38;;;11.50;99.90;;;;;;4927407;29;20056;-70
2022/11/03 07:48:35;;;;;;;20.10;7.07;;;11.60;99.90;;;;;;4929880;29;20488;-69
2022/11/03 07:51:21;;;;;;;24.08;7.90;;;11.60;99.90;;;;;;4921609;29;20503;-69
2022/11/03 07:53:49;;;;;;;20.40;6.20;;;11.60;99.90;;;;;;4929220;29;20135;-69
2022/11/03 07:56:19;;;;;;;;;;;11.60;99.90;;;;;;4928477;29;20047;-69
2022/11/03 07:58:47;;;;;;;20.38;6.43;;;11.60;99.90;;;;;;4931892;29;19954;-70
2022/11/03 08:01:36;;;;;;;22.73;7.10;;;11.70;99.90;;;;;;4928057;29;20048;-70
2022/11/03 08:04:20;;;;;;;20.63;6.95;;;11.70;99.90;;;;;;4943844;28;20055;-69
2022/11/03 08:06:47;;;;;;;12.68;5.88;;;11.80;99.90;;;;;;4930871;29;20040;-69
2022/11/03 08:09:12;;;;;;;16.83;6.30;;;11.80;99.90;;;;;;4927774;29;20044;-70
2022/11/03 08:11:38;;;;;;;16.13;7.15;;;11.80;99.90;;;;;;4929186;29;20087;-70
2022/11/03 08:14:04;;;;;;;25.98;7.05;;;11.80;99.90;;;;;;4929499;29;20136;-69
2022/11/03 08:16:29;;;;;;;23.35;8.18;;;11.80;99.90;;;;;;4929525;29;20046;-69
2022/11/03 08:18:55;;;;;;;14.45;6.00;;;11.90;99.90;;;;;;4929459;29;20536;-69
2022/11/03 08:21:21;;;;;;;18.27;7.00;;;11.90;99.90;;;;;;4932287;29;20040;-69
2022/11/03 08:23:46;;;;;;;21.27;7.80;;;12.00;99.90;;;;;;4928201;29;20441;-69
2022/11/03 08:26:12;;;;;;;25.95;7.57;;;12.00;99.90;;;;;;4926682;29;20540;-69
2022/11/03 08:28:37;;;;;;;22.30;7.57;;;12.00;99.90;;;;;;4925364;29;20052;-69
2022/11/03 08:31:04;;;;;;;18.27;6.43;;;12.00;99.90;;;;;;4930775;29;20063;-69
2022/11/03 08:33:34;;;;;;;15.43;5.32;;;12.10;99.90;;;;;;4944074;28;20048;-69
2022/11/03 08:36:00;;;;;;;25.15;7.85;;;12.10;99.90;;;;;;4930850;29;20056;-69
2022/11/03 08:38:26;;;;;;;25.85;7.25;;;12.10;99.90;;;;;;4944152;28;20122;-69
2022/11/03 08:40:54;;;;;;;16.88;6.32;;;12.20;99.90;;;;;;4928633;29;20043;-69
2022/11/03 08:43:19;;;;;;;27.25;7.70;;;12.20;99.90;;;;;;4928487;29;20079;-69
2022/11/03 08:45:45;;;;;;;19.40;8.55;;;12.20;99.90;;;;;;4928970;29;20052;-70
2022/11/03 08:48:11;;;;;;;17.85;5.72;;;12.30;99.90;;;;;;4928945;29;20503;-69
2022/11/03 08:50:38;;;;;;;18.88;6.70;;;12.30;99.90;;;;;;4928025;29;20476;-69
2022/11/03 08:53:03;;;;;;;18.40;6.53;;;12.30;99.90;;;;;;4928663;29;20062;-69
2022/11/03 08:55:29;;;;;;;23.02;7.13;;;12.40;99.90;;;;;;4927105;29;20040;-70
2022/11/03 08:57:56;;;;;;;13.95;6.47;;;12.40;99.90;;;;;;4928532;29;20044;-69
2022/11/03 09:00:21;;;;;;;18.40;6.57;;;12.70;99.90;;;;;;4928931;29;20087;-70
2022/11/03 09:02:47;;;;;;;26.02;6.93;;;12.60;99.90;;;;;;4927927;29;20078;-69
2022/11/03 09:05:13;;;;;;;17.77;7.03;;;12.60;99.90;;;;;;4927335;29;20457;-69
2022/11/03 09:07:39;;;;;;;20.75;6.88;;;12.60;99.90;;;;;;4928186;29;20374;-69
2022/11/03 09:10:09;;;;;;;18.55;6.43;;;12.70;99.90;;;;;;4929619;29;20055;-70
2022/11/03 09:12:35;;;;;;;16.05;5.97;;;12.90;99.90;;;;;;4936448;29;20086;-70
2022/11/03 09:15:01;;;;;;;23.83;7.63;;;12.80;99.90;;;;;;4931278;29;20512;-70
2022/11/03 09:17:26;;;;;;;16.65;6.70;;;12.80;99.90;;;;;;4930986;29;20069;-69
2022/11/03 09:19:52;;;;;;;21.42;6.70;;;12.80;99.90;;;;;;4930999;29;20052;-69
2022/11/03 09:22:18;;;;;;;15.32;7.20;;;12.90;99.90;;;;;;4931291;29;20051;-70
2022/11/03 09:24:43;;;;;;;27.70;7.32;;;13.00;99.90;;;;;;4932652;29;20103;-70
2022/11/03 09:27:09;;;;;;;18.45;5.97;;;13.00;99.90;;;;;;4946624;28;20107;-69
2022/11/03 09:29:35;;;;;;;13.30;5.93;;;13.00;99.90;;;;;;4930463;29;20124;-70
2022/11/03 09:32:01;;;;;;;18.25;7.22;;;13.10;99.90;;;;;;4931518;29;20063;-70
2022/11/03 09:34:28;;;;;;;30.88;7.85;;;13.10;99.90;;;;;;4930533;29;20051;-69
2022/11/03 09:36:53;;;;;;;22.25;6.78;;;13.20;99.90;;;;;;4930283;29;20079;-69
2022/11/03 09:39:19;;;;;;;19.65;6.03;;;13.20;99.90;;;;;;4930762;29;20047;-70
2022/11/03 09:41:46;;;;;;;23.25;5.80;;;13.20;99.90;;;;;;4930637;29;20048;-70
2022/11/03 09:44:12;;;;;;;17.15;6.68;;;13.30;99.90;;;;;;4942612;28;20464;-70
2022/11/03 09:46:38;;;;;;;22.92;5.68;;;13.30;99.90;;;;;;4931011;29;20047;-70
2022/11/03 09:49:04;;;;;;;17.90;6.53;;;13.30;99.90;;;;;;4931849;29;20052;-70
2022/11/03 09:51:31;;;;;;;16.23;6.85;;;13.40;99.90;;;;;;4931627;29;20180;-70
2022/11/03 09:54:01;;;;;;;15.30;6.40;;;13.50;99.90;;;;;;4931690;29;20040;-70
2022/11/03 09:56:26;;;;;;;17.17;5.85;;;13.70;99.90;;;;;;4930044;29;20742;-70
2022/11/03 09:58:52;;;;;;;14.27;5.60;;;13.80;99.90;;;;;;4927444;29;20051;-70
2022/11/03 10:01:18;;;;;;;17.45;6.03;;;14.30;99.90;;;;;;4943626;28;20044;-70
2022/11/03 10:03:44;;;;;;;18.63;6.78;;;14.20;99.90;;;;;;4948458;28;20052;-70
2022/11/03 10:06:10;;;;;;;17.08;6.22;;;14.30;99.90;;;;;;4930990;29;20051;-70
2022/11/03 10:08:38;;;;;;;22.15;6.18;;;14.50;99.90;;;;;;4930119;29;20052;-70
2022/11/03 10:11:05;;;;;;;;;;;14.60;99.90;;;;;;4930338;29;20845;-70
2022/11/03 10:13:39;;;;;;;16.65;6.78;;;14.70;99.90;;;;;;4930464;29;19929;-70
2022/11/03 10:16:07;;;;;;;21.75;7.47;;;14.70;99.90;;;;;;4929655;29;20059;-70
2022/11/03 10:18:34;;;;;;;21.42;6.65;;;14.80;99.90;;;;;;4929184;29;20043;-70
2022/11/03 10:21:05;;;;;;;13.55;6.72;;;14.80;99.90;;;;;;4930411;29;20060;-70
2022/11/03 10:23:31;;;;;;;21.15;5.93;;;14.70;99.90;;;;;;4926099;29;20058;-70
2022/11/03 10:26:11;;;;;;;13.20;5.60;;;14.80;99.90;;;;;;4930226;29;20102;-70
2022/11/03 10:28:37;;;;;;;13.88;5.65;;;14.90;99.90;;;;;;4929533;29;20070;-70
2022/11/03 10:31:06;;;;;;;13.25;5.50;;;14.90;99.90;;;;;;4930795;29;20108;-70
2022/11/03 10:33:32;;;;;;;15.38;6.93;;;15.00;99.90;;;;;;4929547;29;20150;-70
2022/11/03 10:36:21;;;;;;;17.27;5.55;;;15.00;99.90;;;;;;4930519;29;20048;-70
2022/11/03 10:38:47;;;;;;;11.30;5.82;;;15.00;99.90;;;;;;4929030;29;20048;-70
2022/11/03 10:41:18;;;;;;;19.52;7.40;;;15.00;99.90;;;;;;4931007;29;20055;-70
2022/11/03 10:44:01;;;;;;;30.13;7.20;;;15.00;99.90;;;;;;4929137;29;20044;-70
2022/11/03 10:46:27;;;;;;;31.48;6.38;;;15.00;99.90;;;;;;4928816;29;21015;-70
2022/11/03 10:49:13;;;;;;;13.82;5.50;;;15.00;99.90;;;;;;4930720;29;20043;-70
2022/11/03 10:51:40;;;;;;;17.25;5.53;;;14.90;99.90;;;;;;4928969;29;20044;-70
2022/11/03 10:54:11;;;;;;;11.65;5.30;;;14.90;99.90;;;;;;4928398;29;20083;-70
2022/11/03 10:56:37;;;;;;;17.67;6.43;;;14.90;99.90;;;;;;4923300;29;20606;-70
2022/11/03 10:59:03;;;;;;;11.02;5.28;;;14.90;99.90;;;;;;4928795;29;20044;-70
2022/11/03 11:01:28;;;;;;;17.08;6.45;;;14.90;99.90;;;;;;4928333;29;20150;-70
2022/11/03 11:03:54;;;;;;;17.25;5.85;;;14.90;99.90;;;;;;4929298;29;20054;-70
2022/11/03 11:06:30;;;;;;;21.42;6.85;;;14.80;99.90;;;;;;4945338;29;20505;-70
2022/11/03 11:09:01;;;;;;;12.43;5.75;;;14.90;99.90;;;;;;4928230;29;20103;-70
2022/11/03 11:11:27;;;;;;;13.35;5.35;;;15.00;99.90;;;;;;4933904;29;20055;-69
2022/11/03 11:14:19;;;;;;;14.23;6.47;;;15.20;99.90;;;;;;4929024;29;20051;-70
2022/11/03 11:16:49;;;;;;;16.58;5.72;;;15.10;99.90;;;;;;4908597;29;20056;-70
2022/11/03 11:19:15;;;;;;;18.20;6.20;;;15.20;99.90;;;;;;4928837;29;20067;-69
2022/11/03 11:21:40;;;;;;;38.65;6.93;;;15.30;99.90;;;;;;4929335;29;20048;-69
2022/11/03 11:24:10;;;;;;;23.92;7.65;;;15.40;99.90;;;;;;4929174;29;20059;-70
2022/11/03 11:26:36;;;;;;;22.52;6.55;;;15.40;99.90;;;;;;4928490;29;20193;-69
2022/11/03 11:29:08;;;;;;;20.33;6.53;;;15.30;99.90;;;;;;4942853;28;20052;-69
2022/11/03 11:31:42;;;;;;;20.20;7.28;;;15.40;99.90;;;;;;4927031;29;20100;-70
2022/11/03 11:34:19;;;;;;;15.13;6.80;;;15.40;99.90;;;;;;4928206;29;20058;-70
2022/11/03 11:37:09;;;;;;;19.50;5.53;;;15.50;99.90;;;;;;4925294;29;20535;-70
2022/11/03 11:39:39;;;;;;;14.63;5.38;;;15.40;99.90;;;;;;4927903;29;20074;-69
2022/11/03 11:42:20;;;;;;;17.15;4.50;;;15.40;99.90;;;;;;4928105;29;20057;-69
2022/11/03 11:44:56;;;;;;;20.73;7.15;;;15.40;99.90;;;;;;4929960;29;20530;-69
2022/11/03 11:47:31;;;;;;;16.80;5.07;;;15.40;99.90;;;;;;4930187;29;20054;-69
2022/11/03 11:50:05;;;;;;;15.20;5.85;;;15.30;99.90;;;;;;4928239;29;20050;-70
2022/11/03 11:52:42;;;;;;;13.27;4.88;;;15.40;99.90;;;;;;4929944;29;20175;-69
2022/11/03 11:55:25;;;;;;;9.82;5.13;;;15.50;99.90;;;;;;4927109;29;20043;-69
2022/11/03 11:57:52;;;;;;;14.13;4.65;;;15.30;99.90;;;;;;4929830;29;20101;-69
2022/11/03 12:00:25;;;;;;;17.83;4.07;;;15.30;99.90;;;;;;4929763;29;20123;-69
2022/11/03 12:02:52;;;;;;;28.63;6.10;;;15.20;99.90;;;;;;4929613;29;20051;-69
2022/11/03 12:05:21;;;;;;;12.18;5.30;;;15.40;99.90;;;;;;4927465;29;20835;-69
2022/11/03 12:07:47;;;;;;;16.02;5.75;;;15.20;99.90;;;;;;4927154;29;20103;-69
2022/11/03 12:10:21;;;;;;;8.15;4.70;;;15.10;99.90;;;;;;4914610;29;20048;-69
2022/11/03 12:12:47;;;;;;;14.05;4.97;;;15.10;99.90;;;;;;4925100;29;20055;-69
2022/11/03 12:15:48;;;;;;;19.38;5.82;;;15.10;99.90;;;;;;4928691;29;20058;-69
2022/11/03 12:18:34;;;;;;;7.47;5.18;;;15.10;99.90;;;;;;4943585;29;20052;-69
2022/11/03 12:21:33;;;;;;;14.13;5.40;;;15.00;99.90;;;;;;4937487;28;20086;-69
2022/11/03 12:23:59;;;;;;;12.55;5.63;;;15.00;99.90;;;;;;4927258;29;20457;-69
2022/11/03 12:26:27;;;;;;;14.77;5.10;;;15.10;99.90;;;;;;4941878;28;20043;-69
2022/11/03 12:28:53;;;;;;;15.60;4.18;;;14.90;99.90;;;;;;4929407;29;20131;-70
2022/11/03 12:31:19;;;;;;;12.32;5.30;;;15.10;99.90;;;;;;4924967;29;20138;-69
2022/11/03 12:33:44;;;;;;;14.85;5.88;;;14.80;99.90;;;;;;4927855;29;20727;-69
2022/11/03 12:36:10;;;;;;;12.20;4.65;;;14.80;99.90;;;;;;4927955;29;20060;-70
2022/11/03 12:38:36;;;;;;;16.63;5.10;;;14.70;99.90;;;;;;4929262;29;20071;-69
2022/11/03 12:41:20;;;;;;;18.00;5.80;;;14.70;99.90;;;;;;4928059;29;20059;-69
2022/11/03 12:43:47;;;;;;;14.63;5.47;;;14.80;99.90;;;;;;4931185;29;20572;-69
2022/11/03 12:46:18;;;;;;;11.13;5.87;;;14.60;99.90;;;;;;4932528;29;20071;-69
2022/11/03 12:48:44;;;;;;;14.57;5.55;;;14.60;99.90;;;;;;4931033;29;20440;-69
2022/11/03 12:51:14;;;;;;;12.07;5.13;;;14.80;99.90;;;;;;4930955;29;20063;-69
2022/11/03 12:53:40;;;;;;;10.88;4.95;;;15.00;99.90;;;;;;4931456;29;20110;-69
2022/11/03 12:56:07;;;;;;;13.52;5.03;;;14.50;99.90;;;;;;4932008;29;20044;-70
2022/11/03 12:58:33;;;;;;;12.00;4.65;;;14.50;99.90;;;;;;4947776;29;20095;-69
2022/11/03 13:00:59;;;;;;;8.50;4.43;;;14.50;99.90;;;;;;4929392;29;20052;-69
2022/11/03 13:03:25;;;;;;;15.07;4.85;;;14.50;99.90;;;;;;4930086;29;20078;-69
2022/11/03 13:05:50;;;;;;;11.90;4.15;;;14.60;99.90;;;;;;4933142;29;20052;-69
2022/11/03 13:08:16;;;;;;;16.23;5.47;;;14.50;99.90;;;;;;4930913;29;20155;-69
2022/11/03 13:10:42;;;;;;;14.57;4.82;;;14.60;99.90;;;;;;4932486;29;20087;-69
2022/11/03 13:13:07;;;;;;;18.88;6.40;;;14.50;99.90;;;;;;4932409;29;20058;-69
2022/11/03 13:15:33;;;;;;;13.77;5.95;;;14.50;99.90;;;;;;4932129;29;20130;-69